Time;durP1;ratioP1;P1;durP2;ratioP2;P2;SDS_P1;SDS_P2;PMS_P1;PMS_P2;Temp;Humidity;BMP_temperature;BMP_pressure;BME280_temperature;BME280_humidity;BME280_pressure;Samples;Min_cycle;Max_cycle;Signal;HPM_P1;HPM_P2
2024/04/11 00:00:50;;;;;;;6.40;3.53;;;6.50;96.30;;;;;;5441909;26;20535;-74
2024/04/11 00:03:37;;;;;;;7.17;3.87;;;6.50;95.70;;;;;;5440678;26;21119;-74
2024/04/11 00:06:24;;;;;;;6.60;3.80;;;6.50;95.70;;;;;;5434204;26;20580;-74
2024/04/11 00:09:09;;;;;;;6.73;3.73;;;6.70;95.60;;;;;;5437710;26;21061;-73
2024/04/11 00:11:57;;;;;;;7.43;3.40;;;6.70;94.80;;;;;;5434734;26;20533;-74
2024/04/11 00:14:44;;;;;;;7.53;3.37;;;6.70;94.50;;;;;;5438494;26;20484;-74
2024/04/11 00:17:32;;;;;;;6.03;3.27;;;6.60;94.20;;;;;;5441413;26;20901;-73
2024/04/11 00:20:21;;;;;;;9.40;3.20;;;6.60;94.10;;;;;;5431886;26;20479;-74
2024/04/11 00:23:08;;;;;;;4.27;2.40;;;6.60;94.50;;;;;;5434891;26;20499;-74
2024/04/11 00:25:57;;;;;;;4.23;2.77;;;6.50;94.40;;;;;;5414830;26;20565;-74
2024/04/11 00:28:44;;;;;;;4.90;2.90;;;6.40;94.40;;;;;;5432076;26;20523;-74
2024/04/11 00:31:29;;;;;;;14.23;2.87;;;6.40;94.40;;;;;;5437246;26;20938;-73
2024/04/11 00:34:22;;;;;;;4.90;2.87;;;6.40;94.80;;;;;;5436752;26;20855;-74
2024/04/11 00:37:15;;;;;;;5.60;2.57;;;6.30;95.00;;;;;;5437525;26;20515;-74
2024/04/11 00:39:59;;;;;;;7.70;3.00;;;6.30;94.70;;;;;;5440277;26;20893;-74
2024/04/11 00:42:48;;;;;;;6.83;2.40;;;6.30;94.70;;;;;;5436893;26;20532;-74
2024/04/11 00:45:42;;;;;;;3.47;2.03;;;6.20;94.90;;;;;;5434039;26;20597;-74
2024/04/11 00:48:30;;;;;;;5.73;2.70;;;6.20;94.80;;;;;;5426527;26;20547;-74
2024/04/11 00:51:15;;;;;;;6.97;2.63;;;6.20;94.90;;;;;;5435554;26;20544;-74
2024/04/11 00:54:05;;;;;;;4.17;2.47;;;6.20;95.00;;;;;;5440605;26;20490;-74
2024/04/11 00:56:50;;;;;;;8.43;3.23;;;6.20;94.90;;;;;;5434269;26;20517;-74
2024/04/11 00:59:38;;;;;;;4.43;2.70;;;6.20;95.10;;;;;;5438785;26;20551;-73
2024/04/11 01:02:23;;;;;;;5.00;2.67;;;6.20;94.80;;;;;;5434400;26;20495;-74
2024/04/11 01:05:11;;;;;;;8.70;2.83;;;6.20;94.30;;;;;;5441413;26;20570;-73
2024/04/11 01:07:55;;;;;;;6.97;3.03;;;6.30;94.60;;;;;;5447749;26;20474;-76
2024/04/11 01:10:45;;;;;;;5.80;3.00;;;6.30;94.40;;;;;;5447786;26;20863;-74
2024/04/11 01:13:30;;;;;;;5.93;2.77;;;6.30;94.40;;;;;;5438643;26;21124;-74
2024/04/11 01:16:18;;;;;;;5.40;2.93;;;6.40;94.20;;;;;;5436501;26;20511;-75
2024/04/11 01:19:04;;;;;;;5.73;2.67;;;6.50;94.00;;;;;;5436184;26;20576;-74
2024/04/11 01:21:52;;;;;;;4.90;2.70;;;6.40;93.20;;;;;;5434645;26;20509;-74
2024/04/11 01:24:40;;;;;;;4.10;2.27;;;6.30;92.90;;;;;;5437488;26;20488;-74
2024/04/11 01:27:28;;;;;;;7.13;2.50;;;6.20;93.40;;;;;;5445213;26;21058;-74
2024/04/11 01:30:13;;;;;;;5.43;2.20;;;6.00;93.70;;;;;;5445535;26;20494;-74
2024/04/11 01:33:09;;;;;;;4.03;2.40;;;6.00;94.30;;;;;;5439662;26;20562;-74
2024/04/11 01:35:54;;;;;;;6.10;2.83;;;5.90;94.30;;;;;;5439183;26;20502;-74
2024/04/11 01:38:41;;;;;;;6.50;2.53;;;5.80;95.10;;;;;;5443803;26;20860;-74
2024/04/11 01:41:28;;;;;;;4.27;2.53;;;5.70;95.20;;;;;;5440546;26;20846;-74
2024/04/11 01:44:15;;;;;;;4.50;2.67;;;5.50;96.10;;;;;;5441235;26;20595;-74
2024/04/11 01:47:00;;;;;;;6.20;2.97;;;5.50;96.80;;;;;;5438459;26;20848;-74
2024/04/11 01:49:47;;;;;;;4.60;2.90;;;5.60;96.70;;;;;;5442638;26;20509;-74
2024/04/11 01:52:32;;;;;;;4.13;1.90;;;5.40;97.50;;;;;;5445406;26;20572;-74
2024/04/11 01:55:19;;;;;;;5.63;2.40;;;5.50;97.70;;;;;;5442423;26;20523;-74
2024/04/11 01:58:06;;;;;;;4.13;2.53;;;5.50;97.70;;;;;;5444629;26;21327;-74
2024/04/11 02:00:53;;;;;;;7.60;2.97;;;5.40;97.90;;;;;;5438627;26;20836;-74
2024/04/11 02:03:38;;;;;;;8.43;2.80;;;5.30;98.10;;;;;;5441045;26;20512;-74
2024/04/11 02:06:26;;;;;;;6.67;3.07;;;5.30;98.80;;;;;;5444037;26;20482;-74
2024/04/11 02:09:11;;;;;;;4.87;3.00;;;5.30;98.70;;;;;;5443171;26;20851;-74
2024/04/11 02:11:59;;;;;;;5.20;2.53;;;5.40;98.30;;;;;;5437759;26;20496;-74
2024/04/11 02:14:47;;;;;;;6.57;3.00;;;5.40;97.90;;;;;;5443072;26;20585;-75
2024/04/11 02:17:34;;;;;;;4.90;3.23;;;5.40;97.90;;;;;;5441792;26;20591;-74
2024/04/11 02:20:20;;;;;;;4.80;3.07;;;5.60;97.80;;;;;;5434828;26;20486;-74
2024/04/11 02:23:08;;;;;;;9.33;3.43;;;5.70;97.20;;;;;;5435709;26;20576;-75
2024/04/11 02:25:53;;;;;;;5.90;3.80;;;5.70;97.00;;;;;;5443077;26;20555;-74
2024/04/11 02:28:40;;;;;;;6.97;3.13;;;5.80;96.60;;;;;;5438115;26;20533;-74
2024/04/11 02:31:27;;;;;;;5.73;2.93;;;5.80;96.00;;;;;;5434023;26;20506;-74
2024/04/11 02:34:14;;;;;;;3.27;2.70;;;5.90;95.60;;;;;;5437632;26;20522;-74
2024/04/11 02:36:59;;;;;;;3.63;2.27;;;5.80;94.70;;;;;;5441941;26;20918;-74
2024/04/11 02:39:46;;;;;;;13.63;3.07;;;5.60;94.90;;;;;;5435292;26;21071;-74
2024/04/11 02:42:33;;;;;;;4.63;2.70;;;5.50;95.70;;;;;;5434539;26;20515;-74
2024/04/11 02:45:21;;;;;;;5.60;2.90;;;5.40;96.30;;;;;;5436817;26;20518;-74
2024/04/11 02:48:09;;;;;;;6.20;3.30;;;5.30;96.60;;;;;;5442857;26;20529;-74
2024/04/11 02:50:57;;;;;;;6.50;3.10;;;5.20;97.00;;;;;;5439076;26;20564;-74
2024/04/11 02:53:42;;;;;;;4.83;2.90;;;5.00;98.20;;;;;;5445729;26;20472;-74
2024/04/11 02:56:31;;;;;;;5.87;3.77;;;4.90;99.50;;;;;;5452458;26;20530;-74
2024/04/11 02:59:18;;;;;;;6.83;3.50;;;4.80;99.90;;;;;;5450639;26;20573;-74
2024/04/11 03:02:03;;;;;;;6.13;4.10;;;4.90;99.90;;;;;;5452765;26;20562;-74
2024/04/11 03:04:53;;;;;;;6.43;3.27;;;5.00;99.90;;;;;;5447424;26;20548;-74
2024/04/11 03:07:39;;;;;;;10.50;3.90;;;4.90;99.90;;;;;;5445154;26;20501;-74
2024/04/11 03:10:27;;;;;;;8.43;3.93;;;5.00;99.90;;;;;;5449296;26;20502;-74
2024/04/11 03:13:11;;;;;;;5.57;3.20;;;5.10;99.90;;;;;;5446480;26;20822;-74
2024/04/11 03:15:59;;;;;;;4.67;3.07;;;5.20;99.60;;;;;;5443743;26;21293;-74
2024/04/11 03:18:44;;;;;;;4.45;2.60;;;5.20;99.60;;;;;;5438563;26;20850;-74
2024/04/11 03:21:34;;;;;;;4.83;3.40;;;5.30;99.20;;;;;;5439308;26;20290;-75
2024/04/11 03:24:18;;;;;;;10.37;3.23;;;5.30;98.40;;;;;;5436953;26;20490;-73
2024/04/11 03:27:07;;;;;;;4.67;3.00;;;5.20;98.40;;;;;;5433761;26;20545;-73
2024/04/11 03:29:52;;;;;;;8.60;3.30;;;5.20;98.60;;;;;;5447209;26;21118;-74
2024/04/11 03:32:39;;;;;;;8.75;3.65;;;5.10;98.80;;;;;;5442932;26;21103;-74
2024/04/11 03:35:26;;;;;;;9.27;3.07;;;5.20;98.60;;;;;;5432244;26;20283;-74
2024/04/11 03:38:14;;;;;;;3.73;2.60;;;5.20;98.10;;;;;;5428136;26;20518;-74
2024/04/11 03:41:02;;;;;;;6.00;3.60;;;5.20;97.90;;;;;;5439699;26;20587;-74
2024/04/11 03:43:53;;;;;;;4.60;3.10;;;5.10;98.00;;;;;;5436630;26;21085;-74
2024/04/11 03:46:41;;;;;;;5.33;2.70;;;5.10;97.90;;;;;;5439687;26;20558;-75
2024/04/11 03:49:28;;;;;;;11.10;2.60;;;5.10;97.90;;;;;;5442102;26;20509;-74
2024/04/11 03:52:16;;;;;;;6.70;3.50;;;5.00;97.90;;;;;;5440450;26;20506;-74
2024/04/11 03:55:08;;;;;;;5.40;2.70;;;4.90;98.00;;;;;;5441932;26;20596;-74
2024/04/11 03:57:53;;;;;;;7.77;2.70;;;4.90;98.50;;;;;;5447135;26;20818;-74
2024/04/11 04:00:40;;;;;;;5.30;2.93;;;4.90;98.60;;;;;;5442632;26;20513;-75
2024/04/11 04:03:27;;;;;;;6.03;3.23;;;4.90;99.00;;;;;;5445945;26;20503;-75
2024/04/11 04:06:13;;;;;;;5.73;3.30;;;4.90;99.00;;;;;;5444440;26;20888;-75
2024/04/11 04:09:01;;;;;;;4.50;2.77;;;4.90;98.90;;;;;;5444663;26;20897;-75
2024/04/11 04:11:48;;;;;;;4.00;2.37;;;4.90;98.90;;;;;;5442589;26;20481;-75
2024/04/11 04:14:35;;;;;;;3.30;2.57;;;4.90;98.70;;;;;;5442359;26;20498;-75
2024/04/11 04:17:23;;;;;;;4.20;2.60;;;4.80;98.60;;;;;;5443693;26;20552;-75
2024/04/11 04:20:12;;;;;;;4.13;2.63;;;4.80;98.70;;;;;;5438479;26;20515;-74
2024/04/11 04:22:57;;;;;;;3.30;2.17;;;4.80;98.90;;;;;;5432084;26;20831;-75
2024/04/11 04:25:47;;;;;;;4.40;2.53;;;4.80;98.70;;;;;;5425230;26;20515;-75
2024/04/11 04:28:35;;;;;;;6.80;2.73;;;4.80;98.40;;;;;;5437953;26;20549;-75
2024/04/11 04:31:25;;;;;;;3.50;2.63;;;4.80;98.60;;;;;;5433961;26;20894;-75
2024/04/11 04:34:09;;;;;;;9.77;2.77;;;4.70;98.60;;;;;;5441461;26;20889;-75
2024/04/11 04:36:57;;;;;;;6.13;3.03;;;4.60;99.90;;;;;;5440453;26;20473;-75
2024/04/11 04:39:41;;;;;;;4.70;2.60;;;4.60;99.90;;;;;;5430181;26;20515;-75
2024/04/11 04:42:29;;;;;;;3.97;2.77;;;4.60;99.80;;;;;;5439441;26;20547;-75
2024/04/11 04:45:16;;;;;;;5.17;2.47;;;4.70;99.40;;;;;;5434580;26;20831;-75
2024/04/11 04:48:03;;;;;;;4.23;3.07;;;4.70;99.20;;;;;;5444342;26;20484;-75
2024/04/11 04:50:47;;;;;;;4.97;2.83;;;4.80;99.30;;;;;;5440896;26;21070;-75
2024/04/11 04:53:36;;;;;;;4.60;2.70;;;4.80;98.80;;;;;;5447530;26;20594;-75
2024/04/11 04:56:22;;;;;;;4.20;2.90;;;4.80;98.60;;;;;;5442915;26;20863;-75
2024/04/11 04:59:10;;;;;;;3.70;2.70;;;4.80;98.80;;;;;;5435816;26;20545;-75
2024/04/11 05:01:58;;;;;;;5.23;2.60;;;4.80;98.60;;;;;;5442869;26;21012;-75
2024/04/11 05:04:46;;;;;;;5.80;2.83;;;4.80;98.80;;;;;;5437107;26;20557;-75
2024/04/11 05:07:30;;;;;;;9.93;3.47;;;4.80;98.70;;;;;;5437250;26;20521;-75
2024/04/11 05:10:20;;;;;;;6.63;2.67;;;4.80;99.20;;;;;;5440205;26;20485;-75
2024/04/11 05:13:09;;;;;;;4.50;2.63;;;4.90;99.30;;;;;;5439462;26;20536;-75
2024/04/11 05:16:01;;;;;;;4.97;2.43;;;5.00;99.60;;;;;;5435983;26;21045;-75
2024/04/11 05:18:49;;;;;;;4.87;3.03;;;5.00;99.30;;;;;;5433170;26;20528;-75
2024/04/11 05:21:39;;;;;;;8.10;3.30;;;5.10;99.40;;;;;;5432305;26;20512;-75
2024/04/11 05:24:25;;;;;;;7.43;3.30;;;5.10;99.40;;;;;;5440422;26;20556;-75
2024/04/11 05:27:12;;;;;;;6.03;3.00;;;5.10;99.40;;;;;;5441631;26;20521;-75
2024/04/11 05:29:57;;;;;;;4.33;2.97;;;5.10;99.70;;;;;;5438492;26;20580;-75
2024/04/11 05:32:46;;;;;;;4.23;2.53;;;5.20;99.40;;;;;;5437037;26;20505;-75
2024/04/11 05:35:34;;;;;;;3.80;2.77;;;5.30;99.80;;;;;;5443646;26;20523;-76
2024/04/11 05:38:21;;;;;;;4.90;3.40;;;5.40;99.50;;;;;;5436900;26;21122;-76
2024/04/11 05:41:09;;;;;;;5.40;3.30;;;5.40;99.60;;;;;;5439371;26;20853;-76
2024/04/11 05:43:58;;;;;;;6.37;3.30;;;5.50;99.90;;;;;;5439876;26;20588;-75
2024/04/11 05:46:45;;;;;;;6.10;3.43;;;5.50;99.90;;;;;;5429941;26;20551;-76
2024/04/11 05:49:32;;;;;;;5.07;3.40;;;5.60;99.90;;;;;;5438245;26;21194;-76
2024/04/11 05:52:20;;;;;;;9.80;5.20;;;5.50;99.90;;;;;;5436831;26;20537;-75
2024/04/11 05:55:10;;;;;;;5.70;3.60;;;5.50;99.90;;;;;;5432808;26;20556;-76
2024/04/11 05:57:54;;;;;;;5.93;3.50;;;5.60;99.90;;;;;;5438525;26;20916;-75
2024/04/11 06:00:45;;;;;;;5.60;3.40;;;5.70;99.90;;;;;;5443915;26;20538;-76
2024/04/11 06:03:34;;;;;;;4.83;3.30;;;5.90;99.90;;;;;;5436746;26;20523;-75
2024/04/11 06:06:19;;;;;;;6.00;4.10;;;6.00;99.90;;;;;;5437710;26;20588;-76
2024/04/11 06:09:13;;;;;;;8.17;3.63;;;6.20;99.90;;;;;;5444165;26;21116;-76
2024/04/11 06:11:58;;;;;;;6.50;3.40;;;6.40;99.90;;;;;;5449102;26;20555;-76
2024/04/11 06:14:45;;;;;;;5.00;3.37;;;6.50;99.90;;;;;;5440217;26;20533;-76
2024/04/11 06:17:30;;;;;;;5.93;3.97;;;6.60;99.90;;;;;;5430340;26;20648;-76
2024/04/11 06:20:21;;;;;;;6.20;3.50;;;6.70;99.90;;;;;;5433515;26;21105;-76
2024/04/11 06:23:08;;;;;;;7.40;4.20;;;6.90;99.90;;;;;;5432931;26;20560;-76
2024/04/11 06:26:00;;;;;;;8.10;4.37;;;7.00;99.90;;;;;;5441701;26;20516;-76
2024/04/11 06:28:45;;;;;;;5.67;3.30;;;7.10;99.90;;;;;;5445238;26;20577;-76
2024/04/11 06:31:33;;;;;;;6.03;3.70;;;7.20;99.90;;;;;;5441060;26;20485;-76
2024/04/11 06:34:17;;;;;;;9.47;3.23;;;7.40;99.90;;;;;;5441399;26;20501;-76
2024/04/11 06:37:05;;;;;;;6.40;4.10;;;7.50;99.90;;;;;;5434333;26;20560;-76
2024/04/11 06:39:50;;;;;;;6.90;3.40;;;7.70;99.90;;;;;;5437186;26;20489;-75
2024/04/11 06:42:46;;;;;;;6.50;3.57;;;7.80;99.90;;;;;;5437499;26;20541;-76
2024/04/11 06:45:31;;;;;;;6.20;3.40;;;7.90;99.90;;;;;;5439911;26;20548;-76
2024/04/11 06:48:19;;;;;;;6.93;3.50;;;8.00;99.90;;;;;;5442060;26;20547;-76
2024/04/11 06:51:06;;;;;;;5.23;3.40;;;8.00;99.90;;;;;;5447425;26;20816;-76
2024/04/11 06:53:53;;;;;;;6.20;3.97;;;8.20;99.90;;;;;;5457850;26;20561;-76
2024/04/11 06:56:38;;;;;;;4.93;3.10;;;8.20;99.90;;;;;;5444754;26;20542;-76
2024/04/11 06:59:28;;;;;;;6.30;3.00;;;8.40;99.80;;;;;;5441040;26;20499;-76
2024/04/11 07:02:15;;;;;;;7.77;3.50;;;8.50;99.20;;;;;;5448464;26;20507;-76
2024/04/11 07:05:02;;;;;;;9.80;3.20;;;8.70;97.60;;;;;;5443672;26;20582;-76
2024/04/11 07:07:54;;;;;;;12.60;4.17;;;8.80;97.60;;;;;;5449355;26;20563;-76
2024/04/11 07:10:46;;;;;;;5.60;2.90;;;8.90;96.70;;;;;;5442266;26;20580;-76
2024/04/11 07:13:30;;;;;;;5.40;3.03;;;9.00;95.30;;;;;;5442296;26;20507;-76
2024/04/11 07:16:25;;;;;;;7.20;3.03;;;9.20;94.10;;;;;;5432709;26;20588;-76
2024/04/11 07:19:11;;;;;;;5.87;3.17;;;9.40;94.40;;;;;;5434334;26;20923;-76
2024/04/11 07:21:59;;;;;;;9.07;2.60;;;9.50;93.60;;;;;;5430882;26;20545;-76
2024/04/11 07:24:43;;;;;;;10.27;3.50;;;9.60;92.70;;;;;;5440381;26;20541;-77
2024/04/11 07:27:31;;;;;;;6.70;2.90;;;9.80;90.90;;;;;;5439280;26;20518;-77
2024/04/11 07:30:17;;;;;;;6.27;3.10;;;9.90;89.80;;;;;;5431606;26;21195;-77
2024/04/11 07:33:08;;;;;;;8.10;2.83;;;10.10;88.40;;;;;;5431368;26;20554;-77
2024/04/11 07:35:52;;;;;;;9.40;3.60;;;10.20;90.00;;;;;;5435679;26;21055;-77
2024/04/11 07:38:40;;;;;;;4.90;2.53;;;10.40;89.30;;;;;;5438796;26;21111;-77
2024/04/11 07:41:28;;;;;;;7.77;3.40;;;10.60;86.10;;;;;;5438706;26;20508;-76
2024/04/11 07:44:17;;;;;;;6.10;2.77;;;10.70;85.30;;;;;;5432794;26;20522;-77
2024/04/11 07:47:05;;;;;;;7.90;2.93;;;10.90;88.10;;;;;;5429537;26;20536;-77
2024/04/11 07:49:55;;;;;;;5.87;2.60;;;11.10;88.00;;;;;;5437605;26;20560;-76
2024/04/11 07:52:39;;;;;;;7.20;2.43;;;11.20;85.70;;;;;;5431216;26;21048;-76
2024/04/11 07:55:27;;;;;;;7.77;3.03;;;11.40;88.10;;;;;;5443190;26;21164;-77
2024/04/11 07:58:18;;;;;;;12.20;3.50;;;11.60;83.50;;;;;;5438821;26;20484;-76
2024/04/11 08:01:07;;;;;;;7.73;2.20;;;11.70;78.70;;;;;;5437144;26;21027;-75
2024/04/11 08:03:52;;;;;;;7.33;2.77;;;11.90;75.70;;;;;;5439416;26;20493;-76
2024/04/11 08:06:44;;;;;;;10.47;2.53;;;12.10;76.20;;;;;;5436560;26;20549;-76
2024/04/11 08:09:40;;;;;;;3.87;2.10;;;12.30;76.40;;;;;;5443592;26;20470;-76
2024/04/11 08:12:27;;;;;;;12.53;4.53;;;12.50;75.90;;;;;;5440539;26;20895;-76
2024/04/11 08:15:14;;;;;;;10.70;2.37;;;12.70;75.40;;;;;;5442738;26;20483;-76
2024/04/11 08:18:03;;;;;;;12.37;2.63;;;12.90;71.40;;;;;;5437561;26;20475;-76
2024/04/11 08:20:48;;;;;;;5.63;2.60;;;13.00;75.20;;;;;;5436407;26;20548;-75
2024/04/11 08:23:39;;;;;;;5.90;2.00;;;13.20;61.90;;;;;;5441595;26;20519;-77
2024/04/11 08:26:23;;;;;;;15.27;2.00;;;13.40;57.00;;;;;;5439362;26;20517;-77
2024/04/11 08:29:11;;;;;;;4.07;1.97;;;13.60;55.40;;;;;;5434914;26;20495;-77
2024/04/11 08:31:55;;;;;;;6.87;1.80;;;13.70;56.80;;;;;;5456666;26;20592;-77
2024/04/11 08:34:43;;;;;;;10.40;2.93;;;13.90;52.20;;;;;;5446608;26;20516;-76
2024/04/11 08:37:28;;;;;;;10.37;3.30;;;14.00;47.80;;;;;;5442979;26;21042;-77
2024/04/11 08:40:18;;;;;;;6.97;2.37;;;14.00;48.60;;;;;;5445378;26;20560;-77
2024/04/11 08:43:04;;;;;;;9.73;2.13;;;14.10;45.40;;;;;;5440307;26;20484;-76
2024/04/11 08:45:52;;;;;;;8.40;2.50;;;14.10;40.90;;;;;;5418553;26;20589;-76
2024/04/11 08:48:38;;;;;;;10.03;4.90;;;14.10;35.30;;;;;;5442067;26;20516;-76
2024/04/11 08:51:25;;;;;;;6.13;2.57;;;13.90;36.50;;;;;;5439888;26;21290;-74
2024/04/11 08:54:12;;;;;;;9.67;2.10;;;13.80;37.60;;;;;;5432923;26;20567;-74
2024/04/11 08:57:02;;;;;;;9.37;2.00;;;13.80;40.80;;;;;;5442204;26;20503;-76
2024/04/11 08:59:48;;;;;;;6.20;2.03;;;13.80;37.50;;;;;;5438042;26;20505;-75
2024/04/11 09:02:37;;;;;;;9.27;2.93;;;13.80;35.90;;;;;;5439364;26;21030;-74
2024/04/11 09:05:22;;;;;;;5.20;2.20;;;13.90;38.10;;;;;;5437820;26;20557;-75
2024/04/11 09:08:10;;;;;;;6.30;2.20;;;14.00;35.00;;;;;;5440409;26;20484;-75
2024/04/11 09:10:55;;;;;;;6.67;2.27;;;14.20;39.50;;;;;;5438785;26;20918;-76
2024/04/11 09:13:46;;;;;;;6.67;2.33;;;14.30;27.30;;;;;;5436176;26;20526;-77
2024/04/11 09:16:33;;;;;;;4.70;2.10;;;14.40;25.10;;;;;;5431654;26;20492;-75
2024/04/11 09:19:22;;;;;;;6.10;1.90;;;14.50;28.20;;;;;;5438159;26;20516;-75
2024/04/11 09:22:10;;;;;;;5.47;2.03;;;14.50;29.00;;;;;;5438709;26;21113;-75
2024/04/11 09:24:57;;;;;;;6.20;2.00;;;14.70;27.60;;;;;;5442758;26;20488;-75
2024/04/11 09:27:46;;;;;;;5.97;1.97;;;14.90;29.00;;;;;;5441239;26;20528;-78
2024/04/11 09:30:39;;;;;;;19.03;3.00;;;15.10;25.90;;;;;;5435782;26;20505;-75
2024/04/11 09:33:25;;;;;;;7.47;2.17;;;15.30;24.60;;;;;;5433696;26;20480;-77
2024/04/11 09:36:15;;;;;;;6.80;1.70;;;15.40;22.60;;;;;;5436819;26;21105;-75
2024/04/11 09:39:05;;;;;;;7.33;2.73;;;15.50;21.40;;;;;;5443076;26;20521;-75
2024/04/11 09:41:56;;;;;;;9.17;1.93;;;15.60;24.90;;;;;;5437018;26;21116;-76
2024/04/11 09:44:46;;;;;;;6.47;2.10;;;15.80;22.30;;;;;;5444053;26;20539;-73
2024/04/11 09:47:38;;;;;;;5.70;1.60;;;15.80;21.00;;;;;;5449950;26;20869;-77
2024/04/11 09:50:27;;;;;;;6.33;2.40;;;15.90;18.50;;;;;;5455045;26;20531;-77
2024/04/11 09:53:26;;;;;;;5.73;1.50;;;15.90;16.80;;;;;;5445019;26;20559;-77
2024/04/11 09:56:13;;;;;;;6.03;1.67;;;15.90;15.80;;;;;;5450595;26;20538;-77
2024/04/11 09:59:02;;;;;;;8.10;1.67;;;16.00;15.70;;;;;;5434536;26;20524;-77
2024/04/11 10:01:48;;;;;;;4.83;1.60;;;16.10;15.10;;;;;;5444319;26;20825;-77
2024/04/11 10:04:42;;;;;;;4.30;1.63;;;16.10;13.40;;;;;;5446174;26;20842;-76
2024/04/11 10:07:33;;;;;;;3.77;1.40;;;16.20;11.80;;;;;;5449946;26;20510;-76
2024/04/11 10:10:25;;;;;;;7.50;1.73;;;16.20;7.80;;;;;;5436957;26;21099;-76
2024/04/11 10:13:12;;;;;;;7.50;1.33;;;16.20;9.80;;;;;;5435093;26;20491;-77
2024/04/11 10:16:06;;;;;;;4.37;1.40;;;16.20;10.90;;;;;;5439660;26;20524;-76
2024/04/11 10:19:00;;;;;;;3.33;1.00;;;16.40;10.90;;;;;;5438047;26;21111;-76
2024/04/11 10:21:52;;;;;;;4.47;1.20;;;16.50;9.90;;;;;;5435087;26;20515;-76
2024/04/11 10:24:38;;;;;;;3.87;1.53;;;16.70;9.40;;;;;;5438525;26;20509;-76
2024/04/11 10:27:32;;;;;;;7.90;1.87;;;16.80;10.90;;;;;;5436981;26;20518;-76
2024/04/11 10:30:17;;;;;;;4.53;1.50;;;16.80;9.40;;;;;;5447420;26;20487;-77
2024/04/11 10:33:08;;;;;;;13.37;2.10;;;16.70;8.20;;;;;;5438647;26;20978;-77
2024/04/11 10:35:52;;;;;;;2.50;1.30;;;16.80;9.30;;;;;;5443738;26;20911;-77
2024/04/11 10:38:45;;;;;;;7.03;2.53;;;16.80;9.10;;;;;;5439464;26;20553;-77
2024/04/11 10:41:32;;;;;;;5.90;2.00;;;16.90;8.70;;;;;;5434822;26;20497;-77
2024/04/11 10:44:20;;;;;;;6.70;2.10;;;17.00;8.70;;;;;;5434260;26;20881;-76
2024/04/11 10:47:07;;;;;;;6.20;1.80;;;17.00;8.10;;;;;;5438984;26;20577;-74
2024/04/11 10:49:55;;;;;;;4.37;1.90;;;17.00;10.10;;;;;;5429145;26;20513;-77
2024/04/11 10:52:45;;;;;;;4.87;2.10;;;17.00;9.60;;;;;;5431662;26;20496;-75
2024/04/11 10:55:36;;;;;;;5.97;2.20;;;17.10;10.40;;;;;;5438361;26;20531;-77
2024/04/11 10:58:28;;;;;;;7.20;1.90;;;17.40;12.50;;;;;;5438969;26;20523;-75
2024/04/11 11:01:13;;;;;;;11.37;2.53;;;17.60;9.60;;;;;;5434248;26;20501;-75
2024/04/11 11:04:06;;;;;;;7.73;1.70;;;17.80;7.70;;;;;;5438768;26;21148;-75
2024/04/11 11:06:54;;;;;;;8.40;2.40;;;17.80;9.70;;;;;;5432757;26;20504;-75
2024/04/11 11:09:45;;;;;;;6.63;2.47;;;18.00;8.30;;;;;;5429398;26;20548;-75
2024/04/11 11:12:37;;;;;;;5.73;1.97;;;18.00;6.90;;;;;;5433604;26;20529;-76
